Time;durP1;ratioP1;P1;durP2;ratioP2;P2;SDS_P1;SDS_P2;PMS_P1;PMS_P2;Temp;Humidity;BMP_temperature;BMP_pressure;BME280_temperature;BME280_humidity;BME280_pressure;Samples;Min_cycle;Max_cycle;Signal;HPM_P1;HPM_P2
2022/04/09 00:03:33;;;;;;;0.00;0.00;;;;;;;-145.06;100.00;63404.56;10385237;28;20026;-69
2022/04/09 00:08:33;;;;;;;0.00;0.00;;;;;;;-145.06;100.00;63404.56;10368816;28;20688;-69
2022/04/09 00:13:34;;;;;;;0.00;0.00;;;;;;;-145.06;100.00;63404.56;10382857;28;20030;-69
2022/04/09 00:18:35;;;;;;;0.00;0.00;;;;;;;-145.06;100.00;63404.56;10377955;28;20477;-69
2022/04/09 00:23:36;;;;;;;0.00;0.00;;;;;;;-145.06;100.00;63404.56;10387604;28;20388;-69
2022/04/09 00:28:36;;;;;;;0.00;0.00;;;;;;;-145.06;100.00;63404.56;10392220;28;20032;-69
2022/04/09 00:33:36;;;;;;;0.00;0.00;;;;;;;-145.06;100.00;63404.56;10369859;28;20505;-69
2022/04/09 00:38:36;;;;;;;0.00;0.00;;;;;;;-145.06;100.00;63404.56;10393062;28;20105;-69
2022/04/09 00:43:41;;;;;;;0.03;0.03;;;;;;;-145.06;100.00;63404.56;10385656;28;20116;-69
2022/04/09 00:48:43;;;;;;;0.00;0.00;;;;;;;-145.06;100.00;63404.56;10382308;28;20034;-69
2022/04/09 00:53:48;;;;;;;0.10;0.10;;;;;;;-145.06;100.00;63404.56;10381453;28;20033;-69
2022/04/09 00:58:53;;;;;;;;;;;;;;;-145.06;100.00;63404.56;10403810;28;20025;-69
2022/04/09 01:03:54;;;;;;;;;;;;;;;-145.06;100.00;63404.56;10386386;28;19959;-69
2022/04/09 01:08:54;;;;;;;0.00;0.00;;;;;;;-145.06;100.00;63404.56;10385583;28;19912;-69
2022/04/09 01:13:55;;;;;;;0.10;0.10;;;;;;;-145.06;100.00;63404.56;10399578;28;20395;-69
2022/04/09 01:18:58;;;;;;;0.00;0.00;;;;;;;-145.06;100.00;63404.56;10400414;28;20567;-69
2022/04/09 01:23:59;;;;;;;0.00;0.00;;;;;;;-145.06;100.00;63404.56;10413631;28;20030;-69
2022/04/09 01:28:59;;;;;;;0.00;0.00;;;;;;;-145.06;100.00;63404.56;10448855;28;20067;-69
2022/04/09 01:34:00;;;;;;;0.05;0.05;;;;;;;-145.06;100.00;63404.56;10454186;28;20112;-69
2022/04/09 01:39:00;;;;;;;0.00;0.00;;;;;;;-145.06;100.00;63404.56;10447481;28;20040;-69
2022/04/09 01:44:00;;;;;;;0.10;0.10;;;;;;;-145.06;100.00;63404.56;10395079;28;20026;-69
2022/04/09 01:49:00;;;;;;;0.10;0.10;;;;;;;-145.06;100.00;63404.56;10400961;28;20025;-69
2022/04/09 01:54:01;;;;;;;0.20;0.20;;;;;;;-145.06;100.00;63404.56;10394571;28;20060;-69
2022/04/09 01:59:01;;;;;;;0.00;0.00;;;;;;;-145.06;100.00;63404.56;10395401;28;20018;-69
2022/04/09 02:04:02;;;;;;;0.05;0.05;;;;;;;-145.06;100.00;63404.56;10396826;28;20292;-69
2022/04/09 02:09:03;;;;;;;0.10;0.10;;;;;;;-145.06;100.00;63404.56;10391707;28;20021;-69
2022/04/09 02:14:03;;;;;;;0.00;0.00;;;;;;;-145.06;100.00;63404.56;10381279;28;20481;-69
2022/04/09 02:19:05;;;;;;;0.00;0.00;;;;;;;-145.06;100.00;63404.56;10422527;28;20072;-69
2022/04/09 02:24:05;;;;;;;0.10;0.10;;;;;;;-145.06;100.00;63404.56;10395911;28;20269;-69
2022/04/09 02:29:06;;;;;;;0.10;0.10;;;;;;;-145.06;100.00;63404.56;10367188;28;20202;-69
2022/04/09 02:34:06;;;;;;;0.00;0.00;;;;;;;-145.06;100.00;63404.56;10372979;28;20029;-69
2022/04/09 02:39:07;;;;;;;0.00;0.00;;;;;;;-145.06;100.00;63404.56;10367914;28;20740;-69
2022/04/09 02:44:07;;;;;;;0.03;0.03;;;;;;;-145.06;100.00;63404.56;10366512;28;20057;-69
2022/04/09 02:49:08;;;;;;;0.00;0.00;;;;;;;-145.06;100.00;63404.56;10366653;28;20018;-69
2022/04/09 02:54:15;;;;;;;0.00;0.00;;;;;;;-145.06;100.00;63404.56;10367826;28;20017;-69
2022/04/09 02:59:15;;;;;;;0.00;0.00;;;;;;;-145.06;100.00;63404.56;10367018;28;20385;-69
2022/04/09 03:04:15;;;;;;;0.10;0.10;;;;;;;-145.06;100.00;63404.56;10366675;28;20018;-68
2022/04/09 03:09:16;;;;;;;0.10;0.10;;;;;;;-145.06;100.00;63404.56;10380007;28;20099;-70
2022/04/09 03:14:16;;;;;;;0.00;0.00;;;;;;;-145.06;100.00;63404.56;10406728;28;20280;-70
2022/04/09 03:19:16;;;;;;;0.00;0.00;;;;;;;-145.06;100.00;63404.56;10392270;28;20017;-70
2022/04/09 03:24:17;;;;;;;0.00;0.00;;;;;;;-145.06;100.00;63404.56;10391991;28;20084;-69
2022/04/09 03:29:17;;;;;;;0.10;0.10;;;;;;;-145.06;100.00;63404.56;10379266;28;20124;-69
2022/04/09 03:34:18;;;;;;;0.05;0.05;;;;;;;-145.06;100.00;63404.56;10406226;28;20428;-70
2022/04/09 03:39:18;;;;;;;0.10;0.10;;;;;;;-145.06;100.00;63404.56;10405409;28;20473;-69
2022/04/09 03:44:18;;;;;;;0.00;0.00;;;;;;;-145.06;100.00;63404.56;10404200;28;20393;-69
2022/04/09 03:49:26;;;;;;;0.00;0.00;;;;;;;-145.06;100.00;63404.56;10381160;28;20052;-69
2022/04/09 03:54:26;;;;;;;0.05;0.05;;;;;;;-145.06;100.00;63404.56;10361978;28;20033;-69
2022/04/09 03:59:27;;;;;;;0.20;0.20;;;;;;;-145.06;100.00;63404.56;10364213;28;20353;-69
2022/04/09 04:04:27;;;;;;;0.10;0.10;;;;;;;-145.06;100.00;63404.56;10364102;28;20014;-70
2022/04/09 04:09:28;;;;;;;0.00;0.00;;;;;;;-145.06;100.00;63404.56;10393107;28;20025;-70
2022/04/09 04:14:28;;;;;;;0.00;0.00;;;;;;;-145.06;100.00;63404.56;10404688;28;20053;-69
2022/04/09 04:19:28;;;;;;;0.00;0.00;;;;;;;-145.06;100.00;63404.56;10403942;28;20260;-70
2022/04/09 04:24:29;;;;;;;0.10;0.10;;;;;;;-145.06;100.00;63404.56;10381930;28;20025;-69
2022/04/09 04:29:29;;;;;;;0.08;0.08;;;;;;;-145.06;100.00;63404.56;10364095;28;20340;-70
2022/04/09 04:34:29;;;;;;;0.20;0.20;;;;;;;-145.06;100.00;63404.56;10365737;28;20025;-70
2022/04/09 04:39:30;;;;;;;0.00;0.00;;;;;;;-145.06;100.00;63404.56;10372220;28;20049;-69
2022/04/09 04:44:32;;;;;;;0.05;0.05;;;;;;;-145.06;100.00;63404.56;10371178;28;20507;-69
2022/04/09 04:49:32;;;;;;;0.00;0.00;;;;;;;-145.06;100.00;63404.56;10371431;28;20026;-69
2022/04/09 04:54:33;;;;;;;0.00;0.00;;;;;;;-145.06;100.00;63404.56;10373179;28;20044;-69
2022/04/09 04:59:33;;;;;;;0.00;0.00;;;;;;;-145.06;100.00;63404.56;10371464;28;20092;-70
2022/04/09 05:04:33;;;;;;;0.00;0.00;;;;;;;-145.06;100.00;63404.56;10370953;28;20033;-70
2022/04/09 05:09:35;;;;;;;0.10;0.10;;;;;;;-145.06;100.00;63404.56;10370971;28;20291;-70
2022/04/09 05:14:35;;;;;;;0.00;0.00;;;;;;;-145.06;100.00;63404.56;10371156;28;20026;-70
2022/04/09 05:19:36;;;;;;;0.00;0.00;;;;;;;-145.06;100.00;63404.56;10403011;28;20397;-70
2022/04/09 05:24:36;;;;;;;0.00;0.00;;;;;;;-145.06;100.00;63404.56;10395533;28;20026;-69
2022/04/09 05:29:36;;;;;;;0.05;0.05;;;;;;;-145.06;100.00;63404.56;10369181;28;20041;-70
2022/04/09 05:34:37;;;;;;;0.00;0.00;;;;;;;-145.06;100.00;63404.56;10369578;28;20022;-70
2022/04/09 05:39:37;;;;;;;0.00;0.00;;;;;;;-145.06;100.00;63404.56;10369253;28;20025;-70
2022/04/09 05:44:37;;;;;;;0.00;0.00;;;;;;;-145.06;100.00;63404.56;10399943;28;20498;-69
2022/04/09 05:49:38;;;;;;;0.00;0.00;;;;;;;-145.06;100.00;63404.56;10407694;28;20476;-69
2022/04/09 05:54:38;;;;;;;0.10;0.10;;;;;;;-145.06;100.00;63404.56;10416169;28;20028;-69
2022/04/09 05:59:39;;;;;;;0.00;0.00;;;;;;;-145.06;100.00;63404.56;10410155;28;20163;-69
2022/04/09 06:04:40;;;;;;;0.00;0.00;;;;;;;-145.06;100.00;63404.56;10410095;28;20268;-70
2022/04/09 06:09:41;;;;;;;0.00;0.00;;;;;;;-145.06;100.00;63404.56;10407844;28;20353;-69
2022/04/09 06:14:41;;;;;;;0.05;0.05;;;;;;;-145.06;100.00;63404.56;10410926;28;20452;-69
2022/04/09 06:19:43;;;;;;;0.00;0.00;;;;;;;-145.06;100.00;63404.56;10411619;28;20393;-69
2022/04/09 06:24:43;;;;;;;0.00;0.00;;;;;;;-145.06;100.00;63404.56;10410690;28;20032;-69
2022/04/09 06:29:43;;;;;;;0.00;0.00;;;;;;;-145.06;100.00;63404.56;10409754;28;20044;-69
2022/04/09 06:34:44;;;;;;;0.00;0.00;;;;;;;-145.06;100.00;63404.56;10410230;28;20037;-69
2022/04/09 06:39:44;;;;;;;0.00;0.00;;;;;;;-145.06;100.00;63404.56;10406231;28;20029;-69
2022/04/09 06:44:44;;;;;;;0.00;0.00;;;;;;;-145.06;100.00;63404.56;10398618;28;20124;-69
2022/04/09 06:49:45;;;;;;;0.00;0.00;;;;;;;-145.06;100.00;63404.56;10405791;28;20033;-69
2022/04/09 06:54:45;;;;;;;0.00;0.00;;;;;;;-145.06;100.00;63404.56;10409493;28;20308;-69
2022/04/09 06:59:45;;;;;;;0.00;0.00;;;;;;;-145.06;100.00;63404.56;10379538;28;20418;-70
2022/04/09 07:04:45;;;;;;;0.00;0.00;;;;;;;-145.06;100.00;63404.56;10391006;28;20009;-70
2022/04/09 07:09:46;;;;;;;0.00;0.00;;;;;;;-145.06;100.00;63404.56;10396810;28;20022;-70
2022/04/09 07:14:46;;;;;;;0.00;0.00;;;;;;;-145.06;100.00;63404.56;10366805;28;20021;-70
2022/04/09 07:19:47;;;;;;;0.00;0.00;;;;;;;-145.06;100.00;63404.56;10401299;28;20013;-69
2022/04/09 07:24:47;;;;;;;0.00;0.00;;;;;;;-145.06;100.00;63404.56;10382132;28;20030;-69
2022/04/09 07:29:48;;;;;;;0.00;0.00;;;;;;;-145.06;100.00;63404.56;10367174;28;20030;-70
2022/04/09 07:35:04;;;;;;;0.00;0.00;;;;;;;-145.06;100.00;63404.56;10372869;28;20046;-70
2022/04/09 07:40:05;;;;;;;0.10;0.10;;;;;;;-145.06;100.00;63404.56;10385620;28;20032;-70
2022/04/09 07:45:07;;;;;;;0.00;0.00;;;;;;;-145.06;100.00;63404.56;10389749;28;20478;-70
2022/04/09 07:50:10;;;;;;;0.10;0.10;;;;;;;-145.06;100.00;63404.56;10392077;28;20022;-70
2022/04/09 07:55:15;;;;;;;0.00;0.00;;;;;;;-145.06;100.00;63404.56;10371638;28;20101;-70
2022/04/09 08:00:17;;;;;;;0.10;0.10;;;;;;;-145.06;100.00;63404.56;10386762;28;20060;-70
2022/04/09 08:05:18;;;;;;;0.10;0.10;;;;;;;-145.06;100.00;63404.56;10375905;28;20030;-70
2022/04/09 08:10:18;;;;;;;0.10;0.10;;;;;;;-145.06;100.00;63404.56;10395546;28;20112;-69
2022/04/09 08:15:19;;;;;;;0.00;0.00;;;;;;;-145.06;100.00;63404.56;10405013;28;20029;-70
2022/04/09 08:20:20;;;;;;;0.00;0.00;;;;;;;-145.06;100.00;63404.56;10395589;28;20504;-70
2022/04/09 08:25:20;;;;;;;0.10;0.10;;;;;;;-145.06;100.00;63404.56;10391524;28;20061;-70
2022/04/09 08:30:24;;;;;;;0.10;0.10;;;;;;;-145.06;100.00;63404.56;10384579;28;20099;-70
2022/04/09 08:35:24;;;;;;;0.10;0.10;;;;;;;-145.06;100.00;63404.56;10412826;28;20493;-69
2022/04/09 08:40:26;;;;;;;0.00;0.00;;;;;;;-145.06;100.00;63404.56;10410597;28;20060;-69
2022/04/09 08:45:26;;;;;;;0.10;0.10;;;;;;;-145.06;100.00;63404.56;10413722;28;20022;-69
2022/04/09 08:50:28;;;;;;;0.10;0.10;;;;;;;-145.06;100.00;63404.56;10414861;28;20017;-69
2022/04/09 08:55:28;;;;;;;0.10;0.10;;;;;;;-145.06;100.00;63404.56;10414186;28;20032;-69
2022/04/09 09:00:28;;;;;;;0.10;0.10;;;;;;;-145.06;100.00;63404.56;10414905;28;20448;-69
2022/04/09 09:05:33;;;;;;;0.10;0.10;;;;;;;-145.06;100.00;63404.56;10414140;28;20481;-69
2022/04/09 09:10:35;;;;;;;0.00;0.00;;;;;;;-145.06;100.00;63404.56;10414329;28;20306;-69
2022/04/09 09:15:51;;;;;;;0.00;0.00;;;;;;;-145.06;100.00;63404.56;10413818;28;20047;-69
2022/04/09 09:20:55;;;;;;;0.00;0.00;;;;;;;-145.06;100.00;63404.56;10413079;28;20029;-69
2022/04/09 09:25:56;;;;;;;0.10;0.10;;;;;;;-145.06;100.00;63404.56;10414129;28;20049;-69
2022/04/09 09:30:58;;;;;;;0.10;0.10;;;;;;;-145.06;100.00;63404.56;10413329;28;20025;-69
2022/04/09 09:36:01;;;;;;;0.10;0.10;;;;;;;-145.06;100.00;63404.56;10412946;28;20056;-69
2022/04/09 09:41:03;;;;;;;0.00;0.00;;;;;;;-145.06;100.00;63404.56;10413162;28;20450;-69
2022/04/09 09:46:03;;;;;;;0.00;0.00;;;;;;;-145.06;100.00;63404.56;10412635;28;20024;-67
2022/04/09 09:51:04;;;;;;;0.10;0.10;;;;;;;-145.06;100.00;63404.56;10412545;28;20079;-68
2022/04/09 09:56:05;;;;;;;0.10;0.10;;;;;;;-145.06;100.00;63404.56;10412313;28;20742;-68
2022/04/09 10:01:05;;;;;;;0.10;0.10;;;;;;;-145.06;100.00;63404.56;10411963;28;20515;-68
2022/04/09 10:06:07;;;;;;;0.00;0.00;;;;;;;-145.06;100.00;63404.56;10411572;28;20022;-68
2022/04/09 10:11:09;;;;;;;0.10;0.10;;;;;;;-145.06;100.00;63404.56;10411496;28;20029;-68
2022/04/09 10:16:12;;;;;;;0.00;0.00;;;;;;;-145.06;100.00;63404.56;10411440;28;20129;-68
2022/04/09 10:21:13;;;;;;;0.00;0.00;;;;;;;-145.06;100.00;63404.56;10411583;28;20037;-68
2022/04/09 10:26:15;;;;;;;0.10;0.10;;;;;;;-145.06;100.00;63404.56;10410862;28;20075;-68
2022/04/09 10:31:28;;;;;;;0.00;0.00;;;;;;;-145.06;100.00;63404.56;10410564;28;20025;-68
2022/04/09 10:36:40;;;;;;;0.10;0.10;;;;;;;-145.06;100.00;63404.56;10410370;28;20048;-68
2022/04/09 10:41:40;;;;;;;0.00;0.00;;;;;;;-145.06;100.00;63404.56;10410646;28;20025;-68
2022/04/09 10:46:41;;;;;;;0.10;0.10;;;;;;;-145.06;100.00;63404.56;10409707;28;20457;-68
2022/04/09 10:52:03;;;;;;;0.00;0.00;;;;;;;-145.06;100.00;63404.56;10409847;28;20524;-68
2022/04/09 10:57:21;;;;;;;0.03;0.03;;;;;;;-145.06;100.00;63404.56;10409469;28;20040;-68
2022/04/09 11:02:23;;;;;;;0.00;0.00;;;;;;;-145.06;100.00;63404.56;10408018;28;20032;-69
2022/04/09 11:07:24;;;;;;;0.10;0.10;;;;;;;-145.06;100.00;63404.56;10424467;28;20066;-68
2022/04/09 11:12:28;;;;;;;0.00;0.00;;;;;;;-145.06;100.00;63404.56;10424636;28;20078;-68
2022/04/09 11:17:33;;;;;;;0.10;0.10;;;;;;;-145.06;100.00;63404.56;10425023;28;20459;-68
2022/04/09 11:22:38;;;;;;;0.00;0.00;;;;;;;-145.06;100.00;63404.56;10450290;28;20036;-68
2022/04/09 11:27:38;;;;;;;0.10;0.10;;;;;;;-145.06;100.00;63404.56;10450685;28;20029;-68
2022/04/09 11:32:39;;;;;;;0.10;0.10;;;;;;;-145.06;100.00;63404.56;10450254;28;20041;-68
2022/04/09 11:37:41;;;;;;;0.00;0.00;;;;;;;-145.06;100.00;63404.56;10450425;28;20116;-68
2022/04/09 11:42:49;;;;;;;0.00;0.00;;;;;;;-145.06;100.00;63404.56;10450893;28;20023;-68
2022/04/09 11:47:52;;;;;;;0.10;0.10;;;;;;;-145.06;100.00;63404.56;10449800;28;20070;-68
2022/04/09 11:52:52;;;;;;;0.00;0.00;;;;;;;-145.06;100.00;63404.56;10450370;28;20020;-68
2022/04/09 11:57:54;;;;;;;0.05;0.05;;;;;;;-145.06;100.00;63404.56;10450154;28;20108;-68
2022/04/09 12:02:54;;;;;;;0.10;0.10;;;;;;;-145.06;100.00;63404.56;10449459;28;20036;-68
2022/04/09 12:07:55;;;;;;;0.00;0.00;;;;;;;-145.06;100.00;63404.56;10448734;28;20424;-69
2022/04/09 12:12:57;;;;;;;0.00;0.00;;;;;;;-145.06;100.00;63404.56;10449044;28;20078;-70
2022/04/09 12:17:58;;;;;;;0.00;0.00;;;;;;;-145.06;100.00;63404.56;10431041;28;20028;-69
2022/04/09 12:22:58;;;;;;;0.00;0.00;;;;;;;-145.06;100.00;63404.56;10448628;28;20065;-69
2022/04/09 12:27:59;;;;;;;0.10;0.10;;;;;;;-145.06;100.00;63404.56;10447957;28;20053;-69
2022/04/09 12:33:10;;;;;;;0.08;0.08;;;;;;;-145.06;100.00;63404.56;10448205;28;20056;-69
2022/04/09 12:38:16;;;;;;;0.10;0.10;;;;;;;-145.06;100.00;63404.56;10447733;28;20100;-69
2022/04/09 12:43:34;;;;;;;0.00;0.00;;;;;;;-145.06;100.00;63404.56;10449392;28;20051;-69
2022/04/09 12:48:46;;;;;;;0.10;0.10;;;;;;;-145.06;100.00;63404.56;10432634;28;20025;-69
2022/04/09 12:53:55;;;;;;;0.10;0.10;;;;;;;-145.06;100.00;63404.56;10447948;28;20074;-69
2022/04/09 12:58:55;;;;;;;0.08;0.08;;;;;;;-145.06;100.00;63404.56;10454694;28;20383;-69
2022/04/09 13:03:56;;;;;;;0.10;0.10;;;;;;;-145.06;100.00;63404.56;10455315;28;20035;-69
2022/04/09 13:08:56;;;;;;;0.10;0.10;;;;;;;-145.06;100.00;63404.56;10455474;28;20036;-69
2022/04/09 13:13:56;;;;;;;0.00;0.00;;;;;;;-145.06;100.00;63404.56;10454260;28;20017;-69
2022/04/09 13:18:57;;;;;;;0.10;0.10;;;;;;;-145.06;100.00;63404.56;10454113;28;20210;-69
2022/04/09 13:23:58;;;;;;;0.00;0.00;;;;;;;-145.06;100.00;63404.56;10452883;28;20390;-69
2022/04/09 13:28:58;;;;;;;0.00;0.00;;;;;;;-145.06;100.00;63404.56;10452365;28;20108;-68
2022/04/09 13:34:00;;;;;;;0.00;0.00;;;;;;;-145.06;100.00;63404.56;10453500;28;20017;-68
2022/04/09 13:39:00;;;;;;;0.10;0.10;;;;;;;-145.06;100.00;63404.56;10452753;28;20461;-69
2022/04/09 13:44:01;;;;;;;0.00;0.00;;;;;;;-145.06;100.00;63404.56;10446775;28;20096;-68
2022/04/09 13:49:01;;;;;;;0.10;0.10;;;;;;;-145.06;100.00;63404.56;10440839;28;20267;-68
2022/04/09 13:54:03;;;;;;;0.10;0.10;;;;;;;-145.06;100.00;63404.56;10452246;28;20051;-69
2022/04/09 13:59:03;;;;;;;0.00;0.00;;;;;;;-145.06;100.00;63404.56;10451670;28;20021;-68
2022/04/09 14:04:03;;;;;;;0.00;0.00;;;;;;;-145.06;100.00;63404.56;10451108;28;20108;-68
2022/04/09 14:09:04;;;;;;;0.00;0.00;;;;;;;-145.06;100.00;63404.56;10451978;28;20116;-68
2022/04/09 14:14:04;;;;;;;0.00;0.00;;;;;;;-145.06;100.00;63404.56;10444312;28;20104;-70
2022/04/09 14:19:05;;;;;;;0.00;0.00;;;;;;;-145.06;100.00;63404.56;10410417;28;20385;-69
2022/04/09 14:24:06;;;;;;;0.10;0.10;;;;;;;-145.06;100.00;63404.56;10410830;28;20029;-69
2022/04/09 14:29:06;;;;;;;0.00;0.00;;;;;;;-145.06;100.00;63404.56;10409903;28;20029;-69
2022/04/09 14:34:06;;;;;;;0.00;0.00;;;;;;;-145.06;100.00;63404.56;10410629;28;20026;-69
2022/04/09 14:39:07;;;;;;;0.00;0.00;;;;;;;-145.06;100.00;63404.56;10409657;28;20025;-69
2022/04/09 14:44:09;;;;;;;0.00;0.00;;;;;;;-145.06;100.00;63404.56;10409169;28;20351;-69
2022/04/09 14:49:10;;;;;;;0.00;0.00;;;;;;;-145.06;100.00;63404.56;10408979;28;20151;-69
2022/04/09 14:54:10;;;;;;;0.00;0.00;;;;;;;-145.06;100.00;63404.56;10410048;28;20105;-69
2022/04/09 14:59:11;;;;;;;0.00;0.00;;;;;;;-145.06;100.00;63404.56;10409662;28;20025;-69
2022/04/09 15:04:11;;;;;;;0.00;0.00;;;;;;;-145.06;100.00;63404.56;10409608;28;20381;-69
2022/04/09 15:09:11;;;;;;;0.00;0.00;;;;;;;-145.06;100.00;63404.56;10409359;28;20065;-69
2022/04/09 15:14:12;;;;;;;0.05;0.05;;;;;;;-145.06;100.00;63404.56;10402943;28;20086;-69
2022/04/09 15:19:12;;;;;;;0.00;0.00;;;;;;;-145.06;100.00;63404.56;10435318;28;20021;-69
2022/04/09 15:24:12;;;;;;;0.00;0.00;;;;;;;-145.06;100.00;63404.56;10450330;28;20268;-69
2022/04/09 15:29:12;;;;;;;0.00;0.00;;;;;;;-145.06;100.00;63404.56;10449735;28;20040;-69
2022/04/09 15:34:14;;;;;;;0.00;0.00;;;;;;;-145.06;100.00;63404.56;10435715;28;20024;-69
2022/04/09 15:39:14;;;;;;;0.00;0.00;;;;;;;-145.06;100.00;63404.56;10406863;28;20484;-69
2022/04/09 15:44:15;;;;;;;0.00;0.00;;;;;;;-145.06;100.00;63404.56;10408500;28;20033;-69
2022/04/09 15:49:15;;;;;;;0.00;0.00;;;;;;;-145.06;100.00;63404.56;10408312;28;20033;-69
2022/04/09 15:54:15;;;;;;;0.00;0.00;;;;;;;-145.06;100.00;63404.56;10408856;28;20091;-69
2022/04/09 15:59:16;;;;;;;0.00;0.00;;;;;;;-145.06;100.00;63404.56;10407143;28;20090;-69
2022/04/09 16:04:16;;;;;;;0.00;0.00;;;;;;;-145.06;100.00;63404.56;10401368;28;20174;-70
2022/04/09 16:09:16;;;;;;;0.00;0.00;;;;;;;-145.06;100.00;63404.56;10403586;28;20033;-69
2022/04/09 16:14:17;;;;;;;0.00;0.00;;;;;;;-145.06;100.00;63404.56;10407267;28;20101;-69
2022/04/09 16:19:17;;;;;;;0.00;0.00;;;;;;;-145.06;100.00;63404.56;10407120;28;20061;-69
2022/04/09 16:24:18;;;;;;;0.00;0.00;;;;;;;-145.06;100.00;63404.56;10406119;28;20025;-69
2022/04/09 16:29:18;;;;;;;0.00;0.00;;;;;;;-145.06;100.00;63404.56;10391013;28;20030;-69
2022/04/09 16:34:19;;;;;;;0.10;0.10;;;;;;;-145.06;100.00;63404.56;10412996;28;20025;-69
2022/04/09 16:39:21;;;;;;;0.00;0.00;;;;;;;-145.06;100.00;63404.56;10411357;28;20288;-69
2022/04/09 16:44:22;;;;;;;0.00;0.00;;;;;;;-145.06;100.00;63404.56;10414246;28;20026;-69
2022/04/09 16:49:22;;;;;;;0.00;0.00;;;;;;;-145.06;100.00;63404.56;10414515;28;20017;-69
2022/04/09 16:54:22;;;;;;;0.00;0.00;;;;;;;-145.06;100.00;63404.56;10414519;28;20351;-69
2022/04/09 16:59:23;;;;;;;0.00;0.00;;;;;;;-145.06;100.00;63404.56;10414534;28;20272;-69
2022/04/09 17:04:23;;;;;;;0.00;0.00;;;;;;;-145.06;100.00;63404.56;10414498;28;20061;-69
2022/04/09 17:09:24;;;;;;;0.00;0.00;;;;;;;-145.06;100.00;63404.56;10421009;28;20094;-69
2022/04/09 17:14:24;;;;;;;0.00;0.00;;;;;;;-145.06;100.00;63404.56;10414336;28;20260;-69
2022/04/09 17:19:25;;;;;;;0.00;0.00;;;;;;;-145.06;100.00;63404.56;10413554;28;20029;-69
2022/04/09 17:24:25;;;;;;;0.10;0.10;;;;;;;-145.06;100.00;63404.56;10413612;28;20126;-69
2022/04/09 17:29:26;;;;;;;0.00;0.00;;;;;;;-145.06;100.00;63404.56;10412856;28;20036;-69
2022/04/09 17:34:27;;;;;;;0.00;0.00;;;;;;;-145.06;100.00;63404.56;10413306;28;20033;-69
2022/04/09 17:39:28;;;;;;;0.00;0.00;;;;;;;-145.06;100.00;63404.56;10412446;28;20025;-69
2022/04/09 17:44:28;;;;;;;0.00;0.00;;;;;;;-145.06;100.00;63404.56;10410746;28;20033;-69
2022/04/09 17:49:29;;;;;;;0.00;0.00;;;;;;;-145.06;100.00;63404.56;10412223;28;20021;-69
2022/04/09 17:54:29;;;;;;;0.00;0.00;;;;;;;-145.06;100.00;63404.56;10411959;28;20105;-69
2022/04/09 17:59:29;;;;;;;0.00;0.00;;;;;;;-145.06;100.00;63404.56;10411765;28;20080;-69
2022/04/09 18:04:30;;;;;;;0.00;0.00;;;;;;;-145.06;100.00;63404.56;10411588;28;20105;-69
2022/04/09 18:09:30;;;;;;;0.00;0.00;;;;;;;-145.06;100.00;63404.56;10419001;28;20020;-69
2022/04/09 18:14:30;;;;;;;0.08;0.08;;;;;;;-145.06;100.00;63404.56;10451966;28;20197;-69
2022/04/09 18:19:31;;;;;;;0.00;0.00;;;;;;;-145.06;100.00;63404.56;10451965;28;20028;-69
2022/04/09 18:24:34;;;;;;;0.00;0.00;;;;;;;-145.06;100.00;63404.56;10451571;28;20024;-68
2022/04/09 18:29:34;;;;;;;0.00;0.00;;;;;;;-145.06;100.00;63404.56;10450304;28;20029;-69
2022/04/09 18:34:34;;;;;;;0.00;0.00;;;;;;;-145.06;100.00;63404.56;10451844;28;20425;-68
2022/04/09 18:39:35;;;;;;;0.00;0.00;;;;;;;-145.06;100.00;63404.56;10436159;28;20028;-69
2022/04/09 18:44:35;;;;;;;0.00;0.00;;;;;;;-145.06;100.00;63404.56;10410310;28;20027;-68
2022/04/09 18:49:36;;;;;;;0.00;0.00;;;;;;;-145.06;100.00;63404.56;10409721;28;20091;-68
2022/04/09 18:54:36;;;;;;;0.00;0.00;;;;;;;-145.06;100.00;63404.56;10424203;28;20021;-68
2022/04/09 18:59:36;;;;;;;0.03;0.03;;;;;;;-145.06;100.00;63404.56;10409065;28;20021;-68
2022/04/09 19:04:37;;;;;;;0.00;0.00;;;;;;;-145.06;100.00;63404.56;10409187;28;20052;-69
2022/04/09 19:09:38;;;;;;;0.00;0.00;;;;;;;-145.06;100.00;63404.56;10415044;28;20025;-69
2022/04/09 19:14:38;;;;;;;0.00;0.00;;;;;;;-145.06;100.00;63404.56;10415456;28;20275;-68
2022/04/09 19:19:39;;;;;;;0.00;0.00;;;;;;;-145.06;100.00;63404.56;10408671;28;20021;-68
2022/04/09 19:24:39;;;;;;;0.00;0.00;;;;;;;-145.06;100.00;63404.56;10408465;28;20034;-69
2022/04/09 19:29:39;;;;;;;0.10;0.10;;;;;;;-145.06;100.00;63404.56;10407524;28;20029;-70
2022/04/09 19:34:40;;;;;;;0.10;0.10;;;;;;;-145.06;100.00;63404.56;10408736;28;20268;-69
2022/04/09 19:39:42;;;;;;;0.00;0.00;;;;;;;-145.06;100.00;63404.56;10409046;28;20021;-69
2022/04/09 19:44:42;;;;;;;0.00;0.00;;;;;;;-145.06;100.00;63404.56;10449194;28;20437;-69
2022/04/09 19:49:43;;;;;;;0.00;0.00;;;;;;;-145.06;100.00;63404.56;10448531;28;20107;-69
2022/04/09 19:54:43;;;;;;;0.00;0.00;;;;;;;-145.06;100.00;63404.56;10448611;28;20059;-69
2022/04/09 19:59:44;;;;;;;0.00;0.00;;;;;;;-145.06;100.00;63404.56;10448473;28;20080;-69
2022/04/09 20:04:44;;;;;;;0.00;0.00;;;;;;;-145.06;100.00;63404.56;10448979;28;20039;-69
2022/04/09 20:09:45;;;;;;;0.00;0.00;;;;;;;-145.06;100.00;63404.56;10443530;28;20032;-69
2022/04/09 20:14:45;;;;;;;0.00;0.00;;;;;;;-145.06;100.00;63404.56;10450718;28;20029;-69
2022/04/09 20:19:46;;;;;;;0.10;0.10;;;;;;;-145.06;100.00;63404.56;10457235;28;20476;-69
2022/04/09 20:24:48;;;;;;;0.00;0.00;;;;;;;-145.06;100.00;63404.56;10457139;28;20021;-69
2022/04/09 20:29:49;;;;;;;0.00;0.00;;;;;;;-145.06;100.00;63404.56;10456499;28;20492;-69
2022/04/09 20:34:49;;;;;;;0.00;0.00;;;;;;;-145.06;100.00;63404.56;10456423;28;20020;-69
2022/04/09 20:39:49;;;;;;;0.00;0.00;;;;;;;-145.06;100.00;63404.56;10450595;28;20112;-69
2022/04/09 20:44:50;;;;;;;0.00;0.00;;;;;;;-145.06;100.00;63404.56;10450155;28;20025;-69
2022/04/09 20:49:51;;;;;;;0.00;0.00;;;;;;;-145.06;100.00;63404.56;10455572;28;20255;-69
2022/04/09 20:54:51;;;;;;;0.00;0.00;;;;;;;-145.06;100.00;63404.56;10455301;28;20021;-69
2022/04/09 20:59:51;;;;;;;0.00;0.00;;;;;;;-145.06;100.00;63404.56;10455477;28;20171;-69
2022/04/09 21:04:52;;;;;;;0.00;0.00;;;;;;;-145.06;100.00;63404.56;10455586;28;20108;-69
2022/04/09 21:09:52;;;;;;;0.00;0.00;;;;;;;-145.06;100.00;63404.56;10442021;28;20108;-69
2022/04/09 21:14:52;;;;;;;0.10;0.10;;;;;;;-145.06;100.00;63404.56;10418579;28;20820;-69
2022/04/09 21:19:53;;;;;;;0.00;0.00;;;;;;;-145.06;100.00;63404.56;10411135;28;20116;-69
2022/04/09 21:24:53;;;;;;;0.00;0.00;;;;;;;-145.06;100.00;63404.56;10412941;28;20021;-69
2022/04/09 21:29:53;;;;;;;0.00;0.00;;;;;;;-145.06;100.00;63404.56;10412088;28;20033;-69
2022/04/09 21:34:54;;;;;;;0.00;0.00;;;;;;;-145.06;100.00;63404.56;10412657;28;20021;-69
2022/04/09 21:39:54;;;;;;;0.00;0.00;;;;;;;-145.06;100.00;63404.56;10415528;28;20591;-69
2022/04/09 21:44:54;;;;;;;0.05;0.05;;;;;;;-145.06;100.00;63404.56;10452406;28;20429;-69
2022/04/09 21:49:55;;;;;;;0.10;0.10;;;;;;;-145.06;100.00;63404.56;10453292;28;20085;-69
2022/04/09 21:54:55;;;;;;;0.00;0.00;;;;;;;-145.06;100.00;63404.56;10453107;28;20044;-69
2022/04/09 21:59:56;;;;;;;0.00;0.00;;;;;;;-145.06;100.00;63404.56;10451825;28;20303;-69
2022/04/09 22:04:56;;;;;;;0.00;0.00;;;;;;;-145.06;100.00;63404.56;10452303;28;20531;-69
2022/04/09 22:09:56;;;;;;;0.00;0.00;;;;;;;-145.06;100.00;63404.56;10436400;28;20033;-69
2022/04/09 22:14:57;;;;;;;0.00;0.00;;;;;;;-145.06;100.00;63404.56;10411273;28;20025;-69
2022/04/09 22:19:57;;;;;;;0.00;0.00;;;;;;;-145.06;100.00;63404.56;10410135;28;20076;-69
2022/04/09 22:24:57;;;;;;;0.00;0.00;;;;;;;-145.06;100.00;63404.56;10410363;28;20387;-69
2022/04/09 22:29:57;;;;;;;0.00;0.00;;;;;;;-145.06;100.00;63404.56;10408568;28;20029;-69
2022/04/09 22:34:58;;;;;;;0.00;0.00;;;;;;;-145.06;100.00;63404.56;10410260;28;20136;-69